Laurie Ann Reinauer — WDF2460 — position and weather

sailwx.info

Track history (hours):
 
Tides and Currents Weather Stations Pressure Air Temp Water Temp Dewpoint Dewpoint Depression Visibility Wind Speed Wind Dir Waves Ship Positions

Laurie Ann Reinauer

Owner: HA REINAUER INC., Richmond, NY. More information available from US FCC via Universal Licensing System and Coast Guard Vessel Documentation Center.

Last reported at 2018-Aug-16 18:02 UTC. Time now 2018-Aug-19 15:20 UTC.
Position N 39°18' W 074°18'.

Length 129 m; draft 16.6 m.

Type: Tug. MMSI: 367428330.

Date/timePositionNaut miles runAvg speedWind from/ knotsBaromVisibWave heightAir tempDewpointWater temp
2018-Aug-16 18:02N 39°18' W 074°18'0 9.5
2018-Aug-16 18:00N 39°19' W 074°18'5 9.7
2018-Aug-16 17:29N 39°23' W 074°14'5 9.8
2018-Aug-16 17:01N 39°27' W 074°11'5 9.8
2018-Aug-16 16:30N 39°31' W 074°07'4 8.9
2018-Aug-16 16:01N 39°35' W 074°04'4 7.8
2018-Aug-16 15:30N 39°38' W 074°02'4 7.8
2018-Aug-16 15:00N 39°42' W 074°01'5 9.5
2018-Aug-16 14:30N 39°46' W 073°59'5 9.6
2018-Aug-16 14:00N 39°51' W 073°59'5 9.5
2018-Aug-16 13:30N 39°56' W 073°58'5 9.6
2018-Aug-16 13:00N 40°01' W 073°58'5 9.7
2018-Aug-16 12:30N 40°06' W 073°58'5 9.6
2018-Aug-16 12:00N 40°10' W 073°57'5 9.7
2018-Aug-16 11:28N 40°15' W 073°55'4 9.5
2018-Aug-16 11:00N 40°20' W 073°54'5 9.6
2018-Aug-16 10:30N 40°24' W 073°54'510.3
2018-Aug-16 10:00N 40°29' W 073°56'610.9
2018-Aug-16 09:30N 40°33' W 074°02'611.5
2018-Aug-16 09:00N 40°38' W 074°04'1 2.2
2018-Aug-16 08:30N 40°39' W 074°03'0 0.7
2018-Aug-16 08:00N 40°39' W 074°03'3 0.6
2018-Aug-16 03:24N 40°39' W 074°07'0 0.0
2018-Aug-16 02:57N 40°39' W 074°07'0 0.0
2018-Aug-16 02:30N 40°39' W 074°07'2 4.0
2018-Aug-16 02:00N 40°39' W 074°04'2 3.4
2018-Aug-16 01:30N 40°39' W 074°06'1 2.1
2018-Aug-16 00:57N 40°38' W 074°08'0 0.0
2018-Aug-16 00:30N 40°38' W 074°08'0 0.0
2018-Aug-15 23:31N 40°38' W 074°08'0 0.0
2018-Aug-15 23:25N 40°38' W 074°08'0 0.0
2018-Aug-15 21:51N 40°38' W 074°08'2 5.2
2018-Aug-15 21:30N 40°39' W 074°05'2 3.8
2018-Aug-15 20:59N 40°39' W 074°03'0 0.0
2018-Aug-15 20:24N 40°39' W 074°03'0 0.0
2018-Aug-15 20:00N 40°39' W 074°03'0 0.2
2018-Aug-15 19:30N 40°39' W 074°03'2 4.6
2018-Aug-15 19:00N 40°39' W 074°06'0 0.0
2018-Aug-15 10:01N 40°39' W 074°06'0 0.0
2018-Aug-15 09:43N 40°39' W 074°06'0 0.0
2018-Aug-15 09:26N 40°39' W 074°06'0 0.5
2018-Aug-15 09:00N 40°39' W 074°06'3 5.6
2018-Aug-15 08:30N 40°39' W 074°10'2 3.9
2018-Aug-15 08:00N 40°38' W 074°12'0 0.3
2018-Aug-15 07:30N 40°38' W 074°12'0 0.0
2018-Aug-15 07:00N 40°38' W 074°12'0 0.0
2018-Aug-15 06:30N 40°38' W 074°12'0 0.0
2018-Aug-15 06:00N 40°38' W 074°12'0 0.0
2018-Aug-15 05:30N 40°38' W 074°12'0 0.0
2018-Aug-15 05:00N 40°38' W 074°12'0 0.0
2018-Aug-15 04:30N 40°38' W 074°12'0 0.0
2018-Aug-15 03:48N 40°38' W 074°12'0 0.0
2018-Aug-15 03:30N 40°38' W 074°12'0 0.0
2018-Aug-15 02:54N 40°38' W 074°12'0 0.0
2018-Aug-14 19:30N 40°38' W 074°12'0 0.0
2018-Aug-14 19:00N 40°38' W 074°12'0 0.0
2018-Aug-14 18:21N 40°38' W 074°12'0 0.0
2018-Aug-14 18:00N 40°38' W 074°12'0 0.0
2018-Aug-14 17:27N 40°38' W 074°12'0 0.0
2018-Aug-14 16:06N 40°38' W 074°12'0 0.5
2018-Aug-14 15:42N 40°38' W 074°12'1 4.4
2018-Aug-14 15:30N 40°39' W 074°11'4 8.5
2018-Aug-14 15:00N 40°39' W 074°06'4 8.3
2018-Aug-14 14:28N 40°35' W 074°02'510.2
2018-Aug-14 13:57N 40°31' W 073°59'21 8.9
2018-Aug-14 11:38N 40°10' W 073°56'2 9.5
2018-Aug-14 11:26N 40°08' W 073°56'4 9.6
2018-Aug-14 10:59N 40°04' W 073°56'6 9.5
2018-Aug-14 10:23N 39°58' W 073°57'4 9.4
2018-Aug-14 10:00N 39°55' W 073°57'5 9.4
2018-Aug-14 09:28N 39°50' W 073°58'4 9.3
2018-Aug-14 09:00N 39°46' W 073°59'4 8.8
2018-Aug-14 08:30N 39°42' W 074°01'4 8.7
2018-Aug-14 08:00N 39°38' W 074°04'4 9.0
2018-Aug-14 07:30N 39°34' W 074°07'5 9.0
2018-Aug-14 07:00N 39°30' W 074°10'5 9.0
2018-Aug-14 06:28N 39°26' W 074°13'5 8.9
2018-Aug-14 05:57N 39°22' W 074°16'4 9.1
2018-Aug-14 05:30N 39°18' W 074°19'5 9.4
2018-Aug-14 04:59N 39°14' W 074°22'5 9.6
2018-Aug-14 04:30N 39°11' W 074°26'5 9.6
2018-Aug-14 04:00N 39°07' W 074°29'290 9.1
2018-Aug-12 20:07N 34°28' W 076°09'211 9.6
2018-Aug-11 22:09N 32°44' W 079°50'1 7.1
2018-Aug-11 21:58N 32°45' W 079°51'3 7.0
2018-Aug-11 21:30N 32°47' W 079°54'4 7.1
2018-Aug-11 21:00N 32°50' W 079°56'4 1.7
2018-Aug-11 18:50N 32°53' W 079°58'0 0.0
2018-Aug-11 15:32N 32°53' W 079°58'62 5.1
2018-Aug-11 03:17N 31°60' W 080°35'410.9
2018-Aug-11 02:58N 31°59' W 080°39'510.2
2018-Aug-11 02:29N 31°59' W 080°45'510.2
2018-Aug-11 02:00N 32°02' W 080°49'5 9.8
2018-Aug-11 01:29N 32°02' W 080°55'4 9.0
2018-Aug-11 01:00N 32°05' W 080°59'3 6.1
2018-Aug-11 00:30N 32°05' W 081°03'0 0.0
2018-Aug-10 23:59N 32°05' W 081°03'0 0.0
2018-Aug-10 23:29N 32°05' W 081°03'0 0.0
2018-Aug-10 22:59N 32°05' W 081°03'0 0.0
2018-Aug-10 22:29N 32°05' W 081°03'0 0.0
2018-Aug-10 21:59N 32°05' W 081°03'0 0.0
2018-Aug-10 21:29N 32°05' W 081°03'0 0.0
2018-Aug-10 20:53N 32°05' W 081°03'0 0.0
2018-Aug-10 20:29N 32°05' W 081°03'0 0.0
2018-Aug-10 19:59N 32°05' W 081°03'0 0.0
2018-Aug-10 19:29N 32°05' W 081°03'0 0.0
2018-Aug-10 18:59N 32°05' W 081°03'0 0.0
2018-Aug-10 18:29N 32°05' W 081°03'0 0.0
2018-Aug-10 17:53N 32°05' W 081°03'0 0.0
2018-Aug-10 17:29N 32°05' W 081°03'0 0.0
2018-Aug-10 16:59N 32°05' W 081°03'0 0.0
2018-Aug-10 16:29N 32°05' W 081°03'0 0.0
2018-Aug-10 15:59N 32°05' W 081°03'0 0.0
2018-Aug-10 15:23N 32°05' W 081°03'0 0.0
2018-Aug-10 14:58N 32°05' W 081°03'0 0.0
2018-Aug-10 14:10N 32°05' W 081°03'0 0.0
2018-Aug-10 13:53N 32°05' W 081°03'0 0.0
2018-Aug-10 13:29N 32°05' W 081°03'0 0.0
2018-Aug-10 12:58N 32°05' W 081°03'0 0.0
2018-Aug-10 12:28N 32°05' W 081°03'0 0.0
2018-Aug-10 12:00N 32°05' W 081°03'2 4.1
2018-Aug-10 11:30N 32°06' W 081°01'4 8.7
2018-Aug-10 11:00N 32°04' W 080°57'5 9.5
2018-Aug-10 10:30N 32°02' W 080°51'5 9.3
2018-Aug-10 10:00N 31°60' W 080°47'4 8.4
2018-Aug-10 09:30N 31°56' W 080°43'4 9.0
2018-Aug-10 09:00N 31°52' W 080°44'5 9.1
2018-Aug-10 08:30N 31°48' W 080°45'286 9.6
2018-Aug-09 02:47N 27°04' W 080°01'311.4
2018-Aug-09 02:30N 27°01' W 080°00'611.1
2018-Aug-09 02:00N 26°55' W 079°60'510.8
2018-Aug-09 01:30N 26°50' W 079°59'810.1
2018-Aug-09 00:41N 26°41' W 079°59'210.6
2018-Aug-09 00:30N 26°40' W 079°59'910.7
2018-Aug-08 23:41N 26°31' W 080°00'210.2
2018-Aug-08 23:27N 26°28' W 080°00'410.1
2018-Aug-08 23:00N 26°24' W 080°00'510.9
2018-Aug-08 22:30N 26°18' W 080°01'611.1
2018-Aug-08 22:00N 26°13' W 080°02'510.5
2018-Aug-08 21:30N 26°08' W 080°04'3 5.8
2018-Aug-08 21:00N 26°05' W 080°05'0 0.4
2018-Aug-08 20:30N 26°05' W 080°05'1 1.5
2018-Aug-08 20:00N 26°05' W 080°04'1 2.2
2018-Aug-08 19:30N 26°04' W 080°04'1 2.3
2018-Aug-08 19:00N 26°03' W 080°04'2 4.6
2018-Aug-08 18:29N 26°00' W 080°04'3 5.3
2018-Aug-08 18:00N 25°58' W 080°04'3 5.7
2018-Aug-08 17:30N 25°55' W 080°04'4 7.4
2018-Aug-08 17:00N 25°51' W 080°03'4 8.4
2018-Aug-08 16:30N 25°47' W 080°03'5 9.2
2018-Aug-08 16:00N 25°43' W 080°02'5 9.2
2018-Aug-08 15:30N 25°38' W 080°02'5 9.3
2018-Aug-08 15:00N 25°33' W 080°02'5 9.1
2018-Aug-08 14:30N 25°29' W 080°02'5 8.7
2018-Aug-08 13:58N 25°24' W 080°03'35 8.1
2018-Aug-08 09:41N 24°54' W 080°22'2 8.7
2018-Aug-08 09:27N 24°53' W 080°24'4 8.8
2018-Aug-08 09:00N 24°51' W 080°27'5 8.8
2018-Aug-08 08:28N 24°48' W 080°31'4 8.8
2018-Aug-08 08:00N 24°45' W 080°35'  
Track history (hours):
 
Tides and Currents Weather Stations Pressure Air Temp Water Temp Dewpoint Dewpoint Depression Visibility Wind Speed Wind Dir Waves Ship Positions

Laurie Ann Reinauer

Owner: HA REINAUER INC., Richmond, NY. More information available from US FCC via Universal Licensing System and Coast Guard Vessel Documentation Center.

Last reported at 2018-Aug-16 18:02 UTC. Time now 2018-Aug-19 15:20 UTC.
Position N 39°18' W 074°18'.

Length 129 m; draft 16.6 m.

Type: Tug. MMSI: 367428330.

Date/timePositionNaut miles runAvg speedWind from/ knotsBaromVisibWave heightAir tempDewpointWater temp
2018-Aug-16 18:02N 39°18' W 074°18'0 9.5
2018-Aug-16 18:00N 39°19' W 074°18'5 9.7
2018-Aug-16 17:29N 39°23' W 074°14'5 9.8
2018-Aug-16 17:01N 39°27' W 074°11'5 9.8
2018-Aug-16 16:30N 39°31' W 074°07'4 8.9
2018-Aug-16 16:01N 39°35' W 074°04'4 7.8
2018-Aug-16 15:30N 39°38' W 074°02'4 7.8
2018-Aug-16 15:00N 39°42' W 074°01'5 9.5
2018-Aug-16 14:30N 39°46' W 073°59'5 9.6
2018-Aug-16 14:00N 39°51' W 073°59'5 9.5
2018-Aug-16 13:30N 39°56' W 073°58'5 9.6
2018-Aug-16 13:00N 40°01' W 073°58'5 9.7
2018-Aug-16 12:30N 40°06' W 073°58'5 9.6
2018-Aug-16 12:00N 40°10' W 073°57'5 9.7
2018-Aug-16 11:28N 40°15' W 073°55'4 9.5
2018-Aug-16 11:00N 40°20' W 073°54'5 9.6
2018-Aug-16 10:30N 40°24' W 073°54'510.3
2018-Aug-16 10:00N 40°29' W 073°56'610.9
2018-Aug-16 09:30N 40°33' W 074°02'611.5
2018-Aug-16 09:00N 40°38' W 074°04'1 2.2
2018-Aug-16 08:30N 40°39' W 074°03'0 0.7
2018-Aug-16 08:00N 40°39' W 074°03'3 0.6
2018-Aug-16 03:24N 40°39' W 074°07'0 0.0
2018-Aug-16 02:57N 40°39' W 074°07'0 0.0
2018-Aug-16 02:30N 40°39' W 074°07'2 4.0
2018-Aug-16 02:00N 40°39' W 074°04'2 3.4
2018-Aug-16 01:30N 40°39' W 074°06'1 2.1
2018-Aug-16 00:57N 40°38' W 074°08'0 0.0
2018-Aug-16 00:30N 40°38' W 074°08'0 0.0
2018-Aug-15 23:31N 40°38' W 074°08'0 0.0
2018-Aug-15 23:25N 40°38' W 074°08'0 0.0
2018-Aug-15 21:51N 40°38' W 074°08'2 5.2
2018-Aug-15 21:30N 40°39' W 074°05'2 3.8
2018-Aug-15 20:59N 40°39' W 074°03'0 0.0
2018-Aug-15 20:24N 40°39' W 074°03'0 0.0
2018-Aug-15 20:00N 40°39' W 074°03'0 0.2
2018-Aug-15 19:30N 40°39' W 074°03'2 4.6
2018-Aug-15 19:00N 40°39' W 074°06'0 0.0
2018-Aug-15 10:01N 40°39' W 074°06'0 0.0
2018-Aug-15 09:43N 40°39' W 074°06'0 0.0
2018-Aug-15 09:26N 40°39' W 074°06'0 0.5
2018-Aug-15 09:00N 40°39' W 074°06'3 5.6
2018-Aug-15 08:30N 40°39' W 074°10'2 3.9
2018-Aug-15 08:00N 40°38' W 074°12'0 0.3
2018-Aug-15 07:30N 40°38' W 074°12'0 0.0
2018-Aug-15 07:00N 40°38' W 074°12'0 0.0
2018-Aug-15 06:30N 40°38' W 074°12'0 0.0
2018-Aug-15 06:00N 40°38' W 074°12'0 0.0
2018-Aug-15 05:30N 40°38' W 074°12'0 0.0
2018-Aug-15 05:00N 40°38' W 074°12'0 0.0
2018-Aug-15 04:30N 40°38' W 074°12'0 0.0
2018-Aug-15 03:48N 40°38' W 074°12'0 0.0
2018-Aug-15 03:30N 40°38' W 074°12'0 0.0
2018-Aug-15 02:54N 40°38' W 074°12'0 0.0
2018-Aug-14 19:30N 40°38' W 074°12'0 0.0
2018-Aug-14 19:00N 40°38' W 074°12'0 0.0
2018-Aug-14 18:21N 40°38' W 074°12'0 0.0
2018-Aug-14 18:00N 40°38' W 074°12'0 0.0
2018-Aug-14 17:27N 40°38' W 074°12'0 0.0
2018-Aug-14 16:06N 40°38' W 074°12'0 0.5
2018-Aug-14 15:42N 40°38' W 074°12'1 4.4
2018-Aug-14 15:30N 40°39' W 074°11'4 8.5
2018-Aug-14 15:00N 40°39' W 074°06'4 8.3
2018-Aug-14 14:28N 40°35' W 074°02'510.2
2018-Aug-14 13:57N 40°31' W 073°59'21 8.9
2018-Aug-14 11:38N 40°10' W 073°56'2 9.5
2018-Aug-14 11:26N 40°08' W 073°56'4 9.6
2018-Aug-14 10:59N 40°04' W 073°56'6 9.5
2018-Aug-14 10:23N 39°58' W 073°57'4 9.4
2018-Aug-14 10:00N 39°55' W 073°57'5 9.4
2018-Aug-14 09:28N 39°50' W 073°58'4 9.3
2018-Aug-14 09:00N 39°46' W 073°59'4 8.8
2018-Aug-14 08:30N 39°42' W 074°01'4 8.7
2018-Aug-14 08:00N 39°38' W 074°04'4 9.0
2018-Aug-14 07:30N 39°34' W 074°07'5 9.0
2018-Aug-14 07:00N 39°30' W 074°10'5 9.0
2018-Aug-14 06:28N 39°26' W 074°13'5 8.9
2018-Aug-14 05:57N 39°22' W 074°16'4 9.1
2018-Aug-14 05:30N 39°18' W 074°19'5 9.4
2018-Aug-14 04:59N 39°14' W 074°22'5 9.6
2018-Aug-14 04:30N 39°11' W 074°26'5 9.6
2018-Aug-14 04:00N 39°07' W 074°29'290 9.1
2018-Aug-12 20:07N 34°28' W 076°09'211 9.6
2018-Aug-11 22:09N 32°44' W 079°50'1 7.1
2018-Aug-11 21:58N 32°45' W 079°51'3 7.0
2018-Aug-11 21:30N 32°47' W 079°54'4 7.1
2018-Aug-11 21:00N 32°50' W 079°56'4 1.7
2018-Aug-11 18:50N 32°53' W 079°58'0 0.0
2018-Aug-11 15:32N 32°53' W 079°58'62 5.1
2018-Aug-11 03:17N 31°60' W 080°35'410.9
2018-Aug-11 02:58N 31°59' W 080°39'510.2
2018-Aug-11 02:29N 31°59' W 080°45'510.2
2018-Aug-11 02:00N 32°02' W 080°49'5 9.8
2018-Aug-11 01:29N 32°02' W 080°55'4 9.0
2018-Aug-11 01:00N 32°05' W 080°59'3 6.1
2018-Aug-11 00:30N 32°05' W 081°03'0 0.0
2018-Aug-10 23:59N 32°05' W 081°03'0 0.0
2018-Aug-10 23:29N 32°05' W 081°03'0 0.0
2018-Aug-10 22:59N 32°05' W 081°03'0 0.0
2018-Aug-10 22:29N 32°05' W 081°03'0 0.0
2018-Aug-10 21:59N 32°05' W 081°03'0 0.0
2018-Aug-10 21:29N 32°05' W 081°03'0 0.0
2018-Aug-10 20:53N 32°05' W 081°03'0 0.0
2018-Aug-10 20:29N 32°05' W 081°03'0 0.0
2018-Aug-10 19:59N 32°05' W 081°03'0 0.0
2018-Aug-10 19:29N 32°05' W 081°03'0 0.0
2018-Aug-10 18:59N 32°05' W 081°03'0 0.0
2018-Aug-10 18:29N 32°05' W 081°03'0 0.0
2018-Aug-10 17:53N 32°05' W 081°03'0 0.0
2018-Aug-10 17:29N 32°05' W 081°03'0 0.0
2018-Aug-10 16:59N 32°05' W 081°03'0 0.0
2018-Aug-10 16:29N 32°05' W 081°03'0 0.0
2018-Aug-10 15:59N 32°05' W 081°03'0 0.0
2018-Aug-10 15:23N 32°05' W 081°03'0 0.0
2018-Aug-10 14:58N 32°05' W 081°03'0 0.0
2018-Aug-10 14:10N 32°05' W 081°03'0 0.0
2018-Aug-10 13:53N 32°05' W 081°03'0 0.0
2018-Aug-10 13:29N 32°05' W 081°03'0 0.0
2018-Aug-10 12:58N 32°05' W 081°03'0 0.0
2018-Aug-10 12:28N 32°05' W 081°03'0 0.0
2018-Aug-10 12:00N 32°05' W 081°03'2 4.1
2018-Aug-10 11:30N 32°06' W 081°01'4 8.7
2018-Aug-10 11:00N 32°04' W 080°57'5 9.5
2018-Aug-10 10:30N 32°02' W 080°51'5 9.3
2018-Aug-10 10:00N 31°60' W 080°47'4 8.4
2018-Aug-10 09:30N 31°56' W 080°43'4 9.0
2018-Aug-10 09:00N 31°52' W 080°44'5 9.1
2018-Aug-10 08:30N 31°48' W 080°45'286 9.6
2018-Aug-09 02:47N 27°04' W 080°01'311.4
2018-Aug-09 02:30N 27°01' W 080°00'611.1
2018-Aug-09 02:00N 26°55' W 079°60'510.8
2018-Aug-09 01:30N 26°50' W 079°59'810.1
2018-Aug-09 00:41N 26°41' W 079°59'210.6
2018-Aug-09 00:30N 26°40' W 079°59'910.7
2018-Aug-08 23:41N 26°31' W 080°00'210.2
2018-Aug-08 23:27N 26°28' W 080°00'410.1
2018-Aug-08 23:00N 26°24' W 080°00'510.9
2018-Aug-08 22:30N 26°18' W 080°01'611.1
2018-Aug-08 22:00N 26°13' W 080°02'510.5
2018-Aug-08 21:30N 26°08' W 080°04'3 5.8
2018-Aug-08 21:00N 26°05' W 080°05'0 0.4
2018-Aug-08 20:30N 26°05' W 080°05'1 1.5
2018-Aug-08 20:00N 26°05' W 080°04'1 2.2
2018-Aug-08 19:30N 26°04' W 080°04'1 2.3
2018-Aug-08 19:00N 26°03' W 080°04'2 4.6
2018-Aug-08 18:29N 26°00' W 080°04'3 5.3
2018-Aug-08 18:00N 25°58' W 080°04'3 5.7
2018-Aug-08 17:30N 25°55' W 080°04'4 7.4
2018-Aug-08 17:00N 25°51' W 080°03'4 8.4
2018-Aug-08 16:30N 25°47' W 080°03'5 9.2
2018-Aug-08 16:00N 25°43' W 080°02'5 9.2
2018-Aug-08 15:30N 25°38' W 080°02'5 9.3
2018-Aug-08 15:00N 25°33' W 080°02'5 9.1
2018-Aug-08 14:30N 25°29' W 080°02'5 8.7
2018-Aug-08 13:58N 25°24' W 080°03'35 8.1
2018-Aug-08 09:41N 24°54' W 080°22'2 8.7
2018-Aug-08 09:27N 24°53' W 080°24'4 8.8
2018-Aug-08 09:00N 24°51' W 080°27'5 8.8
2018-Aug-08 08:28N 24°48' W 080°31'4 8.8
2018-Aug-08 08:00N 24°45' W 080°35'  

Dump ship's entire track history